sensor_id;sensor_type;location;lat;lon;timestamp;P1;durP1;ratioP1;P2;durP2;ratioP2
69244;SDS011;56357;52.304;4.870;2022-11-21T00:00:24;10.32;;;5.47;;
69244;SDS011;56357;52.304;4.870;2022-11-21T00:02:52;11.95;;;5.90;;
69244;SDS011;56357;52.304;4.870;2022-11-21T00:05:19;11.77;;;6.18;;
69244;SDS011;56357;52.304;4.870;2022-11-21T00:07:45;11.15;;;5.80;;
69244;SDS011;56357;52.304;4.870;2022-11-21T00:10:11;12.63;;;6.20;;
69244;SDS011;56357;52.304;4.870;2022-11-21T00:12:38;13.25;;;6.53;;
69244;SDS011;56357;52.304;4.870;2022-11-21T00:15:04;11.30;;;5.88;;
69244;SDS011;56357;52.304;4.870;2022-11-21T00:17:31;10.38;;;5.43;;
69244;SDS011;56357;52.304;4.870;2022-11-21T00:19:57;10.27;;;5.45;;
69244;SDS011;56357;52.304;4.870;2022-11-21T00:22:24;11.90;;;6.37;;
69244;SDS011;56357;52.304;4.870;2022-11-21T00:24:50;10.52;;;5.80;;
69244;SDS011;56357;52.304;4.870;2022-11-21T00:27:16;12.25;;;5.65;;
69244;SDS011;56357;52.304;4.870;2022-11-21T00:29:43;10.43;;;5.53;;
69244;SDS011;56357;52.304;4.870;2022-11-21T00:32:09;12.07;;;6.43;;
69244;SDS011;56357;52.304;4.870;2022-11-21T00:34:36;11.40;;;6.33;;
69244;SDS011;56357;52.304;4.870;2022-11-21T00:37:02;11.13;;;5.63;;
69244;SDS011;56357;52.304;4.870;2022-11-21T00:39:28;11.65;;;5.85;;
69244;SDS011;56357;52.304;4.870;2022-11-21T00:41:55;11.68;;;5.95;;
69244;SDS011;56357;52.304;4.870;2022-11-21T00:44:21;11.40;;;5.70;;
69244;SDS011;56357;52.304;4.870;2022-11-21T00:46:47;12.83;;;6.07;;
69244;SDS011;56357;52.304;4.870;2022-11-21T00:49:14;11.45;;;6.38;;
69244;SDS011;56357;52.304;4.870;2022-11-21T00:51:40;10.68;;;6.07;;
69244;SDS011;56357;52.304;4.870;2022-11-21T00:54:07;11.13;;;6.00;;
69244;SDS011;56357;52.304;4.870;2022-11-21T00:56:34;11.57;;;6.20;;
69244;SDS011;56357;52.304;4.870;2022-11-21T00:59:00;11.73;;;6.70;;
69244;SDS011;56357;52.304;4.870;2022-11-21T01:01:26;12.32;;;5.85;;
69244;SDS011;56357;52.304;4.870;2022-11-21T01:03:53;12.65;;;7.25;;
69244;SDS011;56357;52.304;4.870;2022-11-21T01:06:19;11.68;;;6.20;;
69244;SDS011;56357;52.304;4.870;2022-11-21T01:08:46;11.40;;;6.20;;
69244;SDS011;56357;52.304;4.870;2022-11-21T01:11:16;11.87;;;6.90;;
69244;SDS011;56357;52.304;4.870;2022-11-21T01:13:44;11.75;;;5.72;;
69244;SDS011;56357;52.304;4.870;2022-11-21T01:18:42;11.38;;;6.05;;
69244;SDS011;56357;52.304;4.870;2022-11-21T01:21:16;12.35;;;6.85;;
69244;SDS011;56357;52.304;4.870;2022-11-21T01:23:44;12.90;;;6.30;;
69244;SDS011;56357;52.304;4.870;2022-11-21T01:26:12;10.88;;;5.78;;
69244;SDS011;56357;52.304;4.870;2022-11-21T01:28:40;12.85;;;6.40;;
69244;SDS011;56357;52.304;4.870;2022-11-21T01:31:12;12.13;;;6.43;;
69244;SDS011;56357;52.304;4.870;2022-11-21T01:33:43;13.02;;;6.35;;
69244;SDS011;56357;52.304;4.870;2022-11-21T01:36:11;12.10;;;6.70;;
69244;SDS011;56357;52.304;4.870;2022-11-21T01:38:40;12.65;;;6.28;;
69244;SDS011;56357;52.304;4.870;2022-11-21T01:41:08;12.20;;;6.45;;
69244;SDS011;56357;52.304;4.870;2022-11-21T01:43:36;14.02;;;6.65;;
69244;SDS011;56357;52.304;4.870;2022-11-21T01:49:02;12.63;;;6.43;;
69244;SDS011;56357;52.304;4.870;2022-11-21T01:57:11;13.05;;;6.47;;
69244;SDS011;56357;52.304;4.870;2022-11-21T02:02:10;12.23;;;6.43;;
69244;SDS011;56357;52.304;4.870;2022-11-21T02:04:40;12.15;;;6.07;;
69244;SDS011;56357;52.304;4.870;2022-11-21T02:07:08;11.70;;;6.50;;
69244;SDS011;56357;52.304;4.870;2022-11-21T02:09:38;11.70;;;6.50;;
69244;SDS011;56357;52.304;4.870;2022-11-21T02:12:10;11.60;;;5.88;;
69244;SDS011;56357;52.304;4.870;2022-11-21T02:14:43;12.73;;;6.03;;
69244;SDS011;56357;52.304;4.870;2022-11-21T02:17:09;11.98;;;6.15;;
69244;SDS011;56357;52.304;4.870;2022-11-21T02:19:54;11.50;;;5.78;;
69244;SDS011;56357;52.304;4.870;2022-11-21T02:25:14;13.13;;;6.53;;
69244;SDS011;56357;52.304;4.870;2022-11-21T02:27:44;12.57;;;6.37;;
69244;SDS011;56357;52.304;4.870;2022-11-21T02:30:14;12.30;;;6.28;;
69244;SDS011;56357;52.304;4.870;2022-11-21T02:32:42;12.70;;;6.25;;
69244;SDS011;56357;52.304;4.870;2022-11-21T02:35:12;11.52;;;6.05;;
69244;SDS011;56357;52.304;4.870;2022-11-21T02:37:40;11.88;;;6.55;;
69244;SDS011;56357;52.304;4.870;2022-11-21T02:40:11;14.67;;;6.73;;
69244;SDS011;56357;52.304;4.870;2022-11-21T02:42:58;11.35;;;5.57;;
69244;SDS011;56357;52.304;4.870;2022-11-21T02:45:40;11.95;;;6.55;;
69244;SDS011;56357;52.304;4.870;2022-11-21T02:48:08;11.85;;;6.35;;
69244;SDS011;56357;52.304;4.870;2022-11-21T02:50:39;11.80;;;5.95;;
69244;SDS011;56357;52.304;4.870;2022-11-21T02:53:10;11.70;;;6.23;;
69244;SDS011;56357;52.304;4.870;2022-11-21T02:55:38;10.43;;;5.43;;
69244;SDS011;56357;52.304;4.870;2022-11-21T02:58:05;12.95;;;6.53;;
69244;SDS011;56357;52.304;4.870;2022-11-21T03:00:32;11.32;;;6.60;;
69244;SDS011;56357;52.304;4.870;2022-11-21T03:02:59;11.82;;;5.82;;
69244;SDS011;56357;52.304;4.870;2022-11-21T03:05:26;11.33;;;5.67;;
69244;SDS011;56357;52.304;4.870;2022-11-21T03:07:53;12.57;;;6.40;;
69244;SDS011;56357;52.304;4.870;2022-11-21T03:10:20;12.57;;;6.22;;
69244;SDS011;56357;52.304;4.870;2022-11-21T03:12:46;13.30;;;6.20;;
69244;SDS011;56357;52.304;4.870;2022-11-21T03:15:13;12.20;;;6.07;;
69244;SDS011;56357;52.304;4.870;2022-11-21T03:17:41;12.57;;;6.50;;
69244;SDS011;56357;52.304;4.870;2022-11-21T03:20:08;13.63;;;6.78;;
69244;SDS011;56357;52.304;4.870;2022-11-21T03:22:35;11.93;;;5.90;;
69244;SDS011;56357;52.304;4.870;2022-11-21T03:25:02;11.82;;;5.45;;
69244;SDS011;56357;52.304;4.870;2022-11-21T03:27:28;12.45;;;6.10;;
69244;SDS011;56357;52.304;4.870;2022-11-21T03:29:54;12.17;;;5.80;;
69244;SDS011;56357;52.304;4.870;2022-11-21T03:32:21;12.93;;;6.38;;
69244;SDS011;56357;52.304;4.870;2022-11-21T03:34:47;13.13;;;6.20;;
69244;SDS011;56357;52.304;4.870;2022-11-21T03:37:13;12.23;;;6.05;;
69244;SDS011;56357;52.304;4.870;2022-11-21T03:39:40;12.30;;;6.45;;
69244;SDS011;56357;52.304;4.870;2022-11-21T03:42:07;11.00;;;5.67;;
69244;SDS011;56357;52.304;4.870;2022-11-21T03:44:33;12.73;;;6.28;;
69244;SDS011;56357;52.304;4.870;2022-11-21T03:47:00;11.52;;;6.00;;
69244;SDS011;56357;52.304;4.870;2022-11-21T03:49:26;12.00;;;6.00;;
69244;SDS011;56357;52.304;4.870;2022-11-21T03:51:52;11.35;;;5.70;;
69244;SDS011;56357;52.304;4.870;2022-11-21T03:54:19;12.50;;;6.40;;
69244;SDS011;56357;52.304;4.870;2022-11-21T03:56:45;11.68;;;5.78;;
69244;SDS011;56357;52.304;4.870;2022-11-21T03:59:11;11.98;;;5.88;;
69244;SDS011;56357;52.304;4.870;2022-11-21T04:01:38;11.13;;;5.43;;
69244;SDS011;56357;52.304;4.870;2022-11-21T04:04:04;10.80;;;6.05;;
69244;SDS011;56357;52.304;4.870;2022-11-21T04:06:31;11.20;;;6.20;;
69244;SDS011;56357;52.304;4.870;2022-11-21T04:08:57;10.70;;;5.32;;
69244;SDS011;56357;52.304;4.870;2022-11-21T04:11:23;11.77;;;5.68;;
69244;SDS011;56357;52.304;4.870;2022-11-21T04:13:50;11.10;;;5.20;;
69244;SDS011;56357;52.304;4.870;2022-11-21T04:16:17;10.95;;;5.25;;
69244;SDS011;56357;52.304;4.870;2022-11-21T04:18:44;11.57;;;6.13;;
69244;SDS011;56357;52.304;4.870;2022-11-21T04:21:11;11.27;;;5.13;;
69244;SDS011;56357;52.304;4.870;2022-11-21T04:23:37;10.75;;;5.03;;
69244;SDS011;56357;52.304;4.870;2022-11-21T04:26:04;11.40;;;5.70;;
69244;SDS011;56357;52.304;4.870;2022-11-21T04:28:30;11.25;;;5.50;;
69244;SDS011;56357;52.304;4.870;2022-11-21T04:31:06;11.20;;;5.50;;
69244;SDS011;56357;52.304;4.870;2022-11-21T04:33:34;11.55;;;5.68;;
69244;SDS011;56357;52.304;4.870;2022-11-21T04:36:00;12.65;;;6.00;;
69244;SDS011;56357;52.304;4.870;2022-11-21T04:38:27;12.10;;;5.85;;
69244;SDS011;56357;52.304;4.870;2022-11-21T04:40:53;11.57;;;5.35;;
69244;SDS011;56357;52.304;4.870;2022-11-21T04:43:19;9.93;;;5.00;;
69244;SDS011;56357;52.304;4.870;2022-11-21T04:45:46;11.98;;;5.80;;
69244;SDS011;56357;52.304;4.870;2022-11-21T04:48:12;11.32;;;5.50;;
69244;SDS011;56357;52.304;4.870;2022-11-21T04:50:39;11.35;;;5.28;;
69244;SDS011;56357;52.304;4.870;2022-11-21T04:53:05;10.60;;;4.93;;
69244;SDS011;56357;52.304;4.870;2022-11-21T04:55:31;12.17;;;6.00;;
69244;SDS011;56357;52.304;4.870;2022-11-21T04:57:58;10.07;;;5.28;;
69244;SDS011;56357;52.304;4.870;2022-11-21T05:00:25;11.63;;;5.30;;
69244;SDS011;56357;52.304;4.870;2022-11-21T05:02:51;10.88;;;5.10;;
69244;SDS011;56357;52.304;4.870;2022-11-21T05:05:18;12.10;;;5.32;;
69244;SDS011;56357;52.304;4.870;2022-11-21T05:07:44;10.13;;;5.13;;
69244;SDS011;56357;52.304;4.870;2022-11-21T05:10:10;9.23;;;4.40;;
69244;SDS011;56357;52.304;4.870;2022-11-21T05:12:37;10.52;;;5.28;;
69244;SDS011;56357;52.304;4.870;2022-11-21T05:15:21;11.43;;;5.65;;
69244;SDS011;56357;52.304;4.870;2022-11-21T05:17:47;11.18;;;5.82;;
69244;SDS011;56357;52.304;4.870;2022-11-21T05:20:14;10.37;;;4.67;;
69244;SDS011;56357;52.304;4.870;2022-11-21T05:22:42;11.07;;;6.13;;
69244;SDS011;56357;52.304;4.870;2022-11-21T05:25:09;11.25;;;5.63;;
69244;SDS011;56357;52.304;4.870;2022-11-21T05:27:36;12.38;;;5.68;;
69244;SDS011;56357;52.304;4.870;2022-11-21T05:30:02;10.85;;;5.68;;
69244;SDS011;56357;52.304;4.870;2022-11-21T05:32:29;10.43;;;5.37;;
69244;SDS011;56357;52.304;4.870;2022-11-21T05:34:55;10.98;;;5.65;;
69244;SDS011;56357;52.304;4.870;2022-11-21T05:37:22;11.30;;;5.30;;
69244;SDS011;56357;52.304;4.870;2022-11-21T05:39:48;11.23;;;5.18;;
69244;SDS011;56357;52.304;4.870;2022-11-21T05:42:14;11.30;;;5.55;;
69244;SDS011;56357;52.304;4.870;2022-11-21T05:45:01;10.83;;;5.20;;
69244;SDS011;56357;52.304;4.870;2022-11-21T05:47:26;12.23;;;6.35;;
69244;SDS011;56357;52.304;4.870;2022-11-21T05:49:53;11.18;;;5.50;;
69244;SDS011;56357;52.304;4.870;2022-11-21T05:52:19;10.45;;;5.00;;
69244;SDS011;56357;52.304;4.870;2022-11-21T05:54:46;10.75;;;5.47;;
69244;SDS011;56357;52.304;4.870;2022-11-21T05:57:12;10.20;;;5.13;;
69244;SDS011;56357;52.304;4.870;2022-11-21T05:59:38;10.40;;;5.30;;
69244;SDS011;56357;52.304;4.870;2022-11-21T06:02:05;11.27;;;5.20;;
69244;SDS011;56357;52.304;4.870;2022-11-21T06:04:49;11.15;;;5.05;;
69244;SDS011;56357;52.304;4.870;2022-11-21T06:07:15;9.90;;;5.00;;
69244;SDS011;56357;52.304;4.870;2022-11-21T06:09:42;10.70;;;5.27;;
69244;SDS011;56357;52.304;4.870;2022-11-21T06:12:08;11.20;;;5.50;;
69244;SDS011;56357;52.304;4.870;2022-11-21T06:14:34;9.52;;;4.85;;
69244;SDS011;56357;52.304;4.870;2022-11-21T06:17:01;10.25;;;5.00;;
69244;SDS011;56357;52.304;4.870;2022-11-21T06:19:27;10.98;;;5.30;;
69244;SDS011;56357;52.304;4.870;2022-11-21T06:21:54;10.47;;;4.93;;
69244;SDS011;56357;52.304;4.870;2022-11-21T06:24:20;10.50;;;5.28;;
69244;SDS011;56357;52.304;4.870;2022-11-21T06:26:46;9.40;;;5.28;;
69244;SDS011;56357;52.304;4.870;2022-11-21T06:29:13;12.45;;;5.70;;
69244;SDS011;56357;52.304;4.870;2022-11-21T06:31:40;11.35;;;5.32;;
69244;SDS011;56357;52.304;4.870;2022-11-21T06:34:07;10.93;;;5.97;;
69244;SDS011;56357;52.304;4.870;2022-11-21T06:36:33;9.88;;;4.80;;
69244;SDS011;56357;52.304;4.870;2022-11-21T06:38:59;11.57;;;5.68;;
69244;SDS011;56357;52.304;4.870;2022-11-21T06:41:26;9.95;;;5.25;;
69244;SDS011;56357;52.304;4.870;2022-11-21T06:43:54;12.98;;;5.22;;
69244;SDS011;56357;52.304;4.870;2022-11-21T06:46:23;9.77;;;4.90;;
69244;SDS011;56357;52.304;4.870;2022-11-21T06:48:50;9.88;;;4.93;;
69244;SDS011;56357;52.304;4.870;2022-11-21T06:51:20;10.70;;;4.65;;
69244;SDS011;56357;52.304;4.870;2022-11-21T06:53:51;8.98;;;4.72;;
69244;SDS011;56357;52.304;4.870;2022-11-21T06:56:19;10.63;;;4.82;;
69244;SDS011;56357;52.304;4.870;2022-11-21T06:58:46;10.13;;;4.80;;
69244;SDS011;56357;52.304;4.870;2022-11-21T07:01:13;10.55;;;5.10;;
69244;SDS011;56357;52.304;4.870;2022-11-21T07:03:39;10.02;;;4.72;;
69244;SDS011;56357;52.304;4.870;2022-11-21T07:06:05;10.45;;;5.25;;
69244;SDS011;56357;52.304;4.870;2022-11-21T07:08:32;10.25;;;4.57;;
69244;SDS011;56357;52.304;4.870;2022-11-21T07:11:04;9.07;;;4.27;;
69244;SDS011;56357;52.304;4.870;2022-11-21T07:13:32;9.20;;;4.65;;
69244;SDS011;56357;52.304;4.870;2022-11-21T07:16:01;10.32;;;5.45;;
69244;SDS011;56357;52.304;4.870;2022-11-21T07:18:29;10.87;;;4.77;;
69244;SDS011;56357;52.304;4.870;2022-11-21T07:20:59;9.70;;;4.50;;
69244;SDS011;56357;52.304;4.870;2022-11-21T07:23:27;9.63;;;4.45;;
69244;SDS011;56357;52.304;4.870;2022-11-21T07:25:58;10.50;;;4.82;;
69244;SDS011;56357;52.304;4.870;2022-11-21T07:28:26;11.88;;;4.75;;
69244;SDS011;56357;52.304;4.870;2022-11-21T07:30:54;8.40;;;4.47;;
69244;SDS011;56357;52.304;4.870;2022-11-21T07:33:24;8.35;;;4.65;;
69244;SDS011;56357;52.304;4.870;2022-11-21T07:35:51;8.98;;;4.40;;
69244;SDS011;56357;52.304;4.870;2022-11-21T07:38:17;9.88;;;4.70;;
69244;SDS011;56357;52.304;4.870;2022-11-21T07:40:44;9.70;;;4.75;;
69244;SDS011;56357;52.304;4.870;2022-11-21T07:43:10;8.83;;;4.37;;
69244;SDS011;56357;52.304;4.870;2022-11-21T07:45:37;10.05;;;4.50;;
69244;SDS011;56357;52.304;4.870;2022-11-21T07:48:04;10.50;;;4.63;;
69244;SDS011;56357;52.304;4.870;2022-11-21T07:50:31;10.73;;;4.10;;
69244;SDS011;56357;52.304;4.870;2022-11-21T07:52:58;9.10;;;4.35;;
69244;SDS011;56357;52.304;4.870;2022-11-21T07:55:26;9.10;;;4.40;;
69244;SDS011;56357;52.304;4.870;2022-11-21T07:58:01;8.60;;;4.00;;
69244;SDS011;56357;52.304;4.870;2022-11-21T08:00:35;10.40;;;4.30;;
69244;SDS011;56357;52.304;4.870;2022-11-21T08:03:04;10.20;;;4.22;;
69244;SDS011;56357;52.304;4.870;2022-11-21T08:05:34;11.10;;;4.40;;
69244;SDS011;56357;52.304;4.870;2022-11-21T08:08:05;9.73;;;4.40;;
69244;SDS011;56357;52.304;4.870;2022-11-21T08:10:31;10.23;;;5.13;;
69244;SDS011;56357;52.304;4.870;2022-11-21T08:12:58;9.13;;;4.18;;
69244;SDS011;56357;52.304;4.870;2022-11-21T08:15:24;10.02;;;4.50;;
69244;SDS011;56357;52.304;4.870;2022-11-21T08:17:51;10.60;;;4.95;;
69244;SDS011;56357;52.304;4.870;2022-11-21T08:20:17;9.47;;;4.60;;
69244;SDS011;56357;52.304;4.870;2022-11-21T08:22:43;12.13;;;5.00;;
69244;SDS011;56357;52.304;4.870;2022-11-21T08:25:10;11.15;;;4.80;;
69244;SDS011;56357;52.304;4.870;2022-11-21T08:27:37;10.18;;;4.43;;
69244;SDS011;56357;52.304;4.870;2022-11-21T08:30:05;10.57;;;4.53;;
69244;SDS011;56357;52.304;4.870;2022-11-21T08:32:32;10.63;;;4.40;;
69244;SDS011;56357;52.304;4.870;2022-11-21T08:34:59;10.45;;;5.10;;
69244;SDS011;56357;52.304;4.870;2022-11-21T08:37:26;9.70;;;4.00;;
69244;SDS011;56357;52.304;4.870;2022-11-21T08:39:53;9.75;;;4.43;;
69244;SDS011;56357;52.304;4.870;2022-11-21T08:42:20;14.15;;;4.60;;
69244;SDS011;56357;52.304;4.870;2022-11-21T08:44:46;8.53;;;4.10;;
69244;SDS011;56357;52.304;4.870;2022-11-21T08:47:13;11.73;;;4.50;;
69244;SDS011;56357;52.304;4.870;2022-11-21T08:49:39;10.52;;;3.97;;
69244;SDS011;56357;52.304;4.870;2022-11-21T08:52:06;8.75;;;3.95;;
69244;SDS011;56357;52.304;4.870;2022-11-21T08:54:32;10.40;;;4.93;;
69244;SDS011;56357;52.304;4.870;2022-11-21T08:56:59;11.80;;;4.93;;
69244;SDS011;56357;52.304;4.870;2022-11-21T08:59:25;10.07;;;4.13;;
69244;SDS011;56357;52.304;4.870;2022-11-21T09:01:51;9.77;;;3.67;;
69244;SDS011;56357;52.304;4.870;2022-11-21T09:04:18;7.40;;;3.70;;
69244;SDS011;56357;52.304;4.870;2022-11-21T09:06:44;9.93;;;4.22;;
69244;SDS011;56357;52.304;4.870;2022-11-21T09:09:10;8.90;;;4.17;;
69244;SDS011;56357;52.304;4.870;2022-11-21T09:11:37;11.30;;;4.00;;
69244;SDS011;56357;52.304;4.870;2022-11-21T09:14:03;11.30;;;3.78;;
69244;SDS011;56357;52.304;4.870;2022-11-21T09:16:47;10.25;;;4.03;;
69244;SDS011;56357;52.304;4.870;2022-11-21T09:19:27;21.98;;;5.10;;
69244;SDS011;56357;52.304;4.870;2022-11-21T09:21:54;13.23;;;4.30;;
69244;SDS011;56357;52.304;4.870;2022-11-21T09:24:20;13.13;;;4.95;;
69244;SDS011;56357;52.304;4.870;2022-11-21T09:26:47;10.50;;;4.32;;
69244;SDS011;56357;52.304;4.870;2022-11-21T09:29:13;9.98;;;4.38;;
69244;SDS011;56357;52.304;4.870;2022-11-21T09:31:40;10.43;;;3.97;;
69244;SDS011;56357;52.304;4.870;2022-11-21T09:34:07;9.27;;;3.80;;
69244;SDS011;56357;52.304;4.870;2022-11-21T09:36:34;10.50;;;4.05;;
69244;SDS011;56357;52.304;4.870;2022-11-21T09:39:00;12.98;;;4.28;;
69244;SDS011;56357;52.304;4.870;2022-11-21T09:41:48;11.23;;;3.78;;
69244;SDS011;56357;52.304;4.870;2022-11-21T09:49:51;11.23;;;4.30;;
69244;SDS011;56357;52.304;4.870;2022-11-21T09:52:22;17.70;;;4.60;;
69244;SDS011;56357;52.304;4.870;2022-11-21T09:54:54;12.75;;;4.38;;
69244;SDS011;56357;52.304;4.870;2022-11-21T09:57:25;14.50;;;4.78;;
69244;SDS011;56357;52.304;4.870;2022-11-21T09:59:52;11.97;;;4.10;;
69244;SDS011;56357;52.304;4.870;2022-11-21T10:02:19;10.98;;;3.70;;
69244;SDS011;56357;52.304;4.870;2022-11-21T10:04:49;11.70;;;4.13;;
69244;SDS011;56357;52.304;4.870;2022-11-21T10:10:03;10.75;;;4.07;;
69244;SDS011;56357;52.304;4.870;2022-11-21T10:12:53;9.53;;;3.90;;
69244;SDS011;56357;52.304;4.870;2022-11-21T10:15:30;10.18;;;4.07;;
69244;SDS011;56357;52.304;4.870;2022-11-21T10:18:21;8.55;;;3.50;;
69244;SDS011;56357;52.304;4.870;2022-11-21T10:26:55;11.40;;;3.80;;
69244;SDS011;56357;52.304;4.870;2022-11-21T10:29:27;9.73;;;4.00;;
69244;SDS011;56357;52.304;4.870;2022-11-21T10:31:58;10.55;;;3.97;;
69244;SDS011;56357;52.304;4.870;2022-11-21T10:34:29;10.35;;;3.97;;
69244;SDS011;56357;52.304;4.870;2022-11-21T10:37:14;9.48;;;3.35;;
69244;SDS011;56357;52.304;4.870;2022-11-21T10:39:45;10.37;;;3.63;;
69244;SDS011;56357;52.304;4.870;2022-11-21T10:42:16;8.60;;;3.60;;
69244;SDS011;56357;52.304;4.870;2022-11-21T10:45:00;9.45;;;3.92;;
69244;SDS011;56357;52.304;4.870;2022-11-21T10:47:46;9.00;;;3.45;;
69244;SDS011;56357;52.304;4.870;2022-11-21T10:50:17;8.73;;;3.35;;
69244;SDS011;56357;52.304;4.870;2022-11-21T10:53:14;8.50;;;3.30;;
69244;SDS011;56357;52.304;4.870;2022-11-21T11:01:24;8.02;;;3.60;;
69244;SDS011;56357;52.304;4.870;2022-11-21T11:04:04;8.60;;;3.75;;
69244;SDS011;56357;52.304;4.870;2022-11-21T11:06:37;7.70;;;3.33;;
69244;SDS011;56357;52.304;4.870;2022-11-21T11:09:04;8.32;;;3.47;;
69244;SDS011;56357;52.304;4.870;2022-11-21T11:11:31;8.98;;;3.30;;
69244;SDS011;56357;52.304;4.870;2022-11-21T11:14:03;7.90;;;3.95;;
69244;SDS011;56357;52.304;4.870;2022-11-21T11:16:31;9.57;;;3.80;;
69244;SDS011;56357;52.304;4.870;2022-11-21T11:19:04;8.80;;;3.40;;
69244;SDS011;56357;52.304;4.870;2022-11-21T11:29:14;8.15;;;3.38;;
69244;SDS011;56357;52.304;4.870;2022-11-21T11:31:55;9.53;;;3.77;;
69244;SDS011;56357;52.304;4.870;2022-11-21T11:34:36;7.78;;;3.45;;
69244;SDS011;56357;52.304;4.870;2022-11-21T11:42:38;9.20;;;3.90;;
69244;SDS011;56357;52.304;4.870;2022-11-21T11:45:50;9.50;;;3.43;;
69244;SDS011;56357;52.304;4.870;2022-11-21T11:48:46;8.95;;;3.35;;
69244;SDS011;56357;52.304;4.870;2022-11-21T11:53:49;7.38;;;3.10;;
69244;SDS011;56357;52.304;4.870;2022-11-21T11:56:30;7.90;;;2.78;;
69244;SDS011;56357;52.304;4.870;2022-11-21T11:59:02;8.07;;;3.63;;
69244;SDS011;56357;52.304;4.870;2022-11-21T12:01:41;6.18;;;2.65;;
69244;SDS011;56357;52.304;4.870;2022-11-21T12:04:16;7.60;;;2.97;;
69244;SDS011;56357;52.304;4.870;2022-11-21T12:06:53;8.20;;;3.50;;
69244;SDS011;56357;52.304;4.870;2022-11-21T12:12:03;7.83;;;2.70;;
69244;SDS011;56357;52.304;4.870;2022-11-21T12:17:49;8.30;;;2.92;;
69244;SDS011;56357;52.304;4.870;2022-11-21T12:20:28;7.57;;;2.53;;
69244;SDS011;56357;52.304;4.870;2022-11-21T12:22:55;8.90;;;2.70;;
69244;SDS011;56357;52.304;4.870;2022-11-21T12:25:32;7.33;;;2.83;;
69244;SDS011;56357;52.304;4.870;2022-11-21T12:28:11;5.88;;;2.30;;
69244;SDS011;56357;52.304;4.870;2022-11-21T12:30:50;9.85;;;2.83;;
69244;SDS011;56357;52.304;4.870;2022-11-21T12:33:27;7.32;;;2.70;;
69244;SDS011;56357;52.304;4.870;2022-11-21T12:44:40;6.25;;;2.17;;
69244;SDS011;56357;52.304;4.870;2022-11-21T12:47:27;8.45;;;2.40;;
69244;SDS011;56357;52.304;4.870;2022-11-21T12:50:35;7.15;;;2.33;;
69244;SDS011;56357;52.304;4.870;2022-11-21T12:59:30;9.50;;;2.20;;
69244;SDS011;56357;52.304;4.870;2022-11-21T13:04:54;6.72;;;1.88;;
69244;SDS011;56357;52.304;4.870;2022-11-21T13:07:23;6.97;;;2.10;;
69244;SDS011;56357;52.304;4.870;2022-11-21T13:09:53;6.72;;;2.00;;
69244;SDS011;56357;52.304;4.870;2022-11-21T13:18:04;7.03;;;1.80;;
69244;SDS011;56357;52.304;4.870;2022-11-21T13:20:59;7.93;;;3.03;;
69244;SDS011;56357;52.304;4.870;2022-11-21T13:23:36;8.95;;;2.28;;
69244;SDS011;56357;52.304;4.870;2022-11-21T13:28:49;5.22;;;1.67;;
69244;SDS011;56357;52.304;4.870;2022-11-21T13:31:32;4.57;;;1.60;;
69244;SDS011;56357;52.304;4.870;2022-11-21T13:34:00;8.77;;;1.80;;
69244;SDS011;56357;52.304;4.870;2022-11-21T13:42:21;7.95;;;1.70;;
69244;SDS011;56357;52.304;4.870;2022-11-21T13:44:39;6.22;;;1.52;;
69244;SDS011;56357;52.304;4.870;2022-11-21T13:52:33;4.93;;;1.27;;
69244;SDS011;56357;52.304;4.870;2022-11-21T13:57:57;6.28;;;1.30;;
69244;SDS011;56357;52.304;4.870;2022-11-21T14:00:40;6.00;;;1.73;;
69244;SDS011;56357;52.304;4.870;2022-11-21T14:03:35;6.22;;;1.45;;
69244;SDS011;56357;52.304;4.870;2022-11-21T14:08:37;7.00;;;1.27;;
69244;SDS011;56357;52.304;4.870;2022-11-21T14:11:18;9.45;;;1.33;;
69244;SDS011;56357;52.304;4.870;2022-11-21T14:13:47;11.23;;;1.40;;
69244;SDS011;56357;52.304;4.870;2022-11-21T14:16:29;11.10;;;1.35;;
69244;SDS011;56357;52.304;4.870;2022-11-21T14:19:05;8.35;;;1.58;;
69244;SDS011;56357;52.304;4.870;2022-11-21T14:21:38;13.75;;;1.80;;
69244;SDS011;56357;52.304;4.870;2022-11-21T14:24:12;6.78;;;1.80;;
69244;SDS011;56357;52.304;4.870;2022-11-21T14:26:43;6.13;;;1.23;;
69244;SDS011;56357;52.304;4.870;2022-11-21T14:29:45;12.70;;;1.25;;
69244;SDS011;56357;52.304;4.870;2022-11-21T14:32:12;5.53;;;1.30;;
69244;SDS011;56357;52.304;4.870;2022-11-21T14:34:39;6.38;;;1.40;;
69244;SDS011;56357;52.304;4.870;2022-11-21T14:37:05;9.05;;;1.80;;
69244;SDS011;56357;52.304;4.870;2022-11-21T14:39:33;8.63;;;1.00;;
69244;SDS011;56357;52.304;4.870;2022-11-21T14:42:04;5.88;;;1.50;;
69244;SDS011;56357;52.304;4.870;2022-11-21T14:44:37;6.07;;;1.00;;
69244;SDS011;56357;52.304;4.870;2022-11-21T14:49:50;5.40;;;1.10;;
69244;SDS011;56357;52.304;4.870;2022-11-21T14:52:31;7.33;;;1.00;;
69244;SDS011;56357;52.304;4.870;2022-11-21T14:55:00;7.47;;;1.38;;
69244;SDS011;56357;52.304;4.870;2022-11-21T14:57:29;6.80;;;1.00;;
69244;SDS011;56357;52.304;4.870;2022-11-21T15:00:04;4.65;;;1.30;;
69244;SDS011;56357;52.304;4.870;2022-11-21T15:02:32;8.45;;;1.40;;
69244;SDS011;56357;52.304;4.870;2022-11-21T15:04:59;5.77;;;1.07;;
69244;SDS011;56357;52.304;4.870;2022-11-21T15:07:35;8.80;;;1.33;;
69244;SDS011;56357;52.304;4.870;2022-11-21T15:10:06;5.57;;;0.95;;
69244;SDS011;56357;52.304;4.870;2022-11-21T15:12:40;5.20;;;1.00;;
69244;SDS011;56357;52.304;4.870;2022-11-21T15:15:22;6.60;;;1.38;;
69244;SDS011;56357;52.304;4.870;2022-11-21T15:18:12;5.53;;;1.27;;
69244;SDS011;56357;52.304;4.870;2022-11-21T15:20:45;6.75;;;1.13;;
69244;SDS011;56357;52.304;4.870;2022-11-21T15:23:30;4.70;;;1.00;;
69244;SDS011;56357;52.304;4.870;2022-11-21T15:25:59;7.63;;;0.98;;
69244;SDS011;56357;52.304;4.870;2022-11-21T15:28:26;7.50;;;1.45;;
69244;SDS011;56357;52.304;4.870;2022-11-21T15:31:12;6.77;;;1.00;;
69244;SDS011;56357;52.304;4.870;2022-11-21T15:36:23;5.57;;;1.23;;
69244;SDS011;56357;52.304;4.870;2022-11-21T15:38:51;5.97;;;1.50;;
69244;SDS011;56357;52.304;4.870;2022-11-21T15:41:31;5.40;;;1.20;;
69244;SDS011;56357;52.304;4.870;2022-11-21T15:49:04;8.10;;;1.20;;
69244;SDS011;56357;52.304;4.870;2022-11-21T15:51:32;4.82;;;0.93;;
69244;SDS011;56357;52.304;4.870;2022-11-21T15:54:01;6.68;;;1.20;;
69244;SDS011;56357;52.304;4.870;2022-11-21T15:56:28;4.97;;;0.87;;
69244;SDS011;56357;52.304;4.870;2022-11-21T15:58:54;9.82;;;1.10;;
69244;SDS011;56357;52.304;4.870;2022-11-21T16:01:21;4.88;;;0.95;;
69244;SDS011;56357;52.304;4.870;2022-11-21T16:03:52;6.18;;;1.00;;
69244;SDS011;56357;52.304;4.870;2022-11-21T16:06:21;5.63;;;1.25;;
69244;SDS011;56357;52.304;4.870;2022-11-21T16:08:48;5.83;;;1.20;;
69244;SDS011;56357;52.304;4.870;2022-11-21T16:11:24;6.63;;;1.23;;
69244;SDS011;56357;52.304;4.870;2022-11-21T16:13:53;11.18;;;1.70;;
69244;SDS011;56357;52.304;4.870;2022-11-21T16:16:23;10.20;;;1.30;;
69244;SDS011;56357;52.304;4.870;2022-11-21T16:18:51;5.53;;;1.08;;
69244;SDS011;56357;52.304;4.870;2022-11-21T16:21:17;6.50;;;1.20;;
69244;SDS011;56357;52.304;4.870;2022-11-21T16:23:44;7.57;;;1.10;;
69244;SDS011;56357;52.304;4.870;2022-11-21T16:26:10;6.55;;;1.20;;
69244;SDS011;56357;52.304;4.870;2022-11-21T16:28:37;9.65;;;1.10;;
69244;SDS011;56357;52.304;4.870;2022-11-21T16:31:04;9.45;;;0.90;;
69244;SDS011;56357;52.304;4.870;2022-11-21T16:33:31;11.60;;;1.47;;
69244;SDS011;56357;52.304;4.870;2022-11-21T16:35:59;7.75;;;1.30;;
69244;SDS011;56357;52.304;4.870;2022-11-21T16:38:26;10.13;;;1.17;;
69244;SDS011;56357;52.304;4.870;2022-11-21T16:40:57;6.82;;;1.02;;
69244;SDS011;56357;52.304;4.870;2022-11-21T16:43:25;8.68;;;1.40;;
69244;SDS011;56357;52.304;4.870;2022-11-21T16:45:55;11.53;;;1.40;;
69244;SDS011;56357;52.304;4.870;2022-11-21T16:48:31;5.95;;;0.98;;